地図

経路データ

SID SEASON NUMBER BASIN SUBBASIN NAME ISO_TIME NATURE LAT LON WMO_WIND WMO_PRES WMO_AGENCY TRACK_TYPE DIST2LAND LANDFALL IFLAG USA_AGENCY USA_ATCF_ID USA_LAT USA_LON USA_RECORD USA_STATUS USA_WIND USA_PRES USA_SSHS USA_R34_NE USA_R34_SE USA_R34_SW USA_R34_NW USA_R50_NE USA_R50_SE USA_R50_SW USA_R50_NW USA_R64_NE USA_R64_SE USA_R64_SW USA_R64_NW USA_POCI USA_ROCI USA_RMW USA_EYE TOKYO_LAT TOKYO_LON TOKYO_GRADE TOKYO_WIND TOKYO_PRES TOKYO_R50_DIR TOKYO_R50_LONG TOKYO_R50_SHORT TOKYO_R30_DIR TOKYO_R30_LONG TOKYO_R30_SHORT TOKYO_LAND CMA_LAT CMA_LON CMA_CAT CMA_WIND CMA_PRES HKO_LAT HKO_LON HKO_CAT HKO_WIND HKO_PRES NEWDELHI_LAT NEWDELHI_LON NEWDELHI_GRADE NEWDELHI_WIND NEWDELHI_PRES NEWDELHI_CI NEWDELHI_DP NEWDELHI_POCI REUNION_LAT REUNION_LON REUNION_TYPE REUNION_WIND REUNION_PRES REUNION_TNUM REUNION_CI REUNION_RMW REUNION_R34_NE REUNION_R34_SE REUNION_R34_SW REUNION_R34_NW REUNION_R50_NE REUNION_R50_SE REUNION_R50_SW REUNION_R50_NW REUNION_R64_NE REUNION_R64_SE REUNION_R64_SW REUNION_R64_NW BOM_LAT BOM_LON BOM_TYPE BOM_WIND BOM_PRES BOM_TNUM BOM_CI BOM_RMW BOM_R34_NE BOM_R34_SE BOM_R34_SW BOM_R34_NW BOM_R50_NE BOM_R50_SE BOM_R50_SW BOM_R50_NW BOM_R64_NE BOM_R64_SE BOM_R64_SW BOM_R64_NW BOM_ROCI BOM_POCI BOM_EYE BOM_POS_METHOD BOM_PRES_METHOD NADI_LAT NADI_LON NADI_CAT NADI_WIND NADI_PRES WELLINGTON_LAT WELLINGTON_LON WELLINGTON_WIND WELLINGTON_PRES DS824_LAT DS824_LON DS824_STAGE DS824_WIND DS824_PRES TD9636_LAT TD9636_LON TD9636_STAGE TD9636_WIND TD9636_PRES TD9635_LAT TD9635_LON TD9635_WIND TD9635_PRES TD9635_ROCI NEUMANN_LAT NEUMANN_LON NEUMANN_CLASS NEUMANN_WIND NEUMANN_PRES MLC_LAT MLC_LON MLC_CLASS MLC_WIND MLC_PRES USA_GUST BOM_GUST BOM_GUST_PER REUNION_GUST REUNION_GUST_PER USA_SEAHGT USA_SEARAD_NE USA_SEARAD_SE USA_SEARAD_SW USA_SEARAD_NW STORM_SPEED STORM_DIR
1952033N19273 1952 11 NA CS NOT_NAMED 1952-02-02 06:00:00 DS 18.5000 -87.2000 25 hurdat_atl main 53 15 O_____________ hurdat_atl AL011952 18.5000 -87.2000 LO 25 -3 9 323
1952033N19273 1952 11 NA CS NOT_NAMED 1952-02-02 09:00:00 DS 18.8600 -87.4883 main 10 0 P_____________ AL011952 18.8600 -87.4883 LO 25 -3 10 349
1952033N19273 1952 11 NA CS NOT_NAMED 1952-02-02 12:00:00 DS 19.5000 -87.4000 25 hurdat_atl main 0 0 O_____________ hurdat_atl AL011952 19.5000 -87.4000 LO 25 -3 19 24
1952033N19273 1952 11 NA CS NOT_NAMED 1952-02-02 15:00:00 DS 20.5825 -86.6689 main 30 30 P_____________ AL011952 20.5825 -86.6689 LO 27 -3 29 38
1952033N19273 1952 11 NA CS NOT_NAMED 1952-02-02 18:00:00 DS 21.8000 -85.5000 30 hurdat_atl main 52 15 O_____________ hurdat_atl AL011952 21.8000 -85.5000 LO 30 -3 32 47
1952033N19273 1952 11 NA GM NOT_NAMED 1952-02-02 21:00:00 DS 22.7361 -84.1707 main 15 11 P_____________ AL011952 22.7361 -84.1707 LO 35 -3 31 53
1952033N19273 1952 11 NA NA NOT_NAMED 1952-02-03 00:00:00 DS 23.7000 -82.8000 40 hurdat_atl main 73 67 O_____________ hurdat_atl AL011952 23.7000 -82.8000 LO 40 -3 32 47
1952033N19273 1952 11 NA GM NOT_NAMED 1952-02-03 03:00:00 DS 24.8887 -81.6456 main 52 0 P_____________ AL011952 24.8887 -81.6456 LO 47 -3 32 39
1952033N19273 1952 11 NA NA NOT_NAMED 1952-02-03 06:00:00 MX 26.2000 -80.6000 55 hurdat_atl main 0 0 O_____________ hurdat_atl AL011952 26.2000 -80.6000 TS 55 0 33 35
1952033N19273 1952 11 NA NA NOT_NAMED 1952-02-03 09:00:00 MX 27.5798 -79.5331 main 81 81 P_____________ AL011952 27.5798 -79.5331 TS 55 0 32 33
1952033N19273 1952 11 NA NA NOT_NAMED 1952-02-03 12:00:00 TS 28.9000 -78.6000 55 hurdat_atl main 190 190 O_____________ hurdat_atl AL011952 28.9000 -78.6000 TS 55 0 28 31
1952033N19273 1952 11 NA NA NOT_NAMED 1952-02-03 15:00:00 TS 29.9934 -77.9080 main 302 300 P_____________ AL011952 29.9934 -77.9080 TS 57 0 24 28
1952033N19273 1952 11 NA NA NOT_NAMED 1952-02-03 18:00:00 TS 31.0000 -77.3000 60 hurdat_atl main 298 248 O_____________ hurdat_atl AL011952 31.0000 -77.3000 TS 60 0 24 29
1952033N19273 1952 11 NA NA NOT_NAMED 1952-02-03 21:00:00 TS 32.0348 -76.5634 main 248 197 P_____________ AL011952 32.0348 -76.5634 TS 60 0 25 31
1952033N19273 1952 11 NA NA NOT_NAMED 1952-02-04 00:00:00 TS 33.1000 -75.8000 60 hurdat_atl main 189 134 O_____________ hurdat_atl AL011952 33.1000 -75.8000 TS 60 0 25 30
1952033N19273 1952 11 NA NA NOT_NAMED 1952-02-04 03:00:00 TS 34.1810 -75.1036 main 134 112 P_____________ AL011952 34.1810 -75.1036 TS 60 0 26 28
1952033N19273 1952 11 NA NA NOT_NAMED 1952-02-04 06:00:00 ET 35.4000 -74.3000 60 hurdat_atl main 117 117 O_____________ hurdat_atl AL011952 35.4000 -74.3000 EX 60 -4 31 30
1952033N19273 1952 11 NA NA NOT_NAMED 1952-02-04 09:00:00 ET 36.8482 -73.2104 main 231 222 P_____________ AL011952 36.8482 -73.2104 EX 60 -4 35 32
1952033N19273 1952 11 NA NA NOT_NAMED 1952-02-04 12:00:00 ET 38.4000 -72.0000 60 hurdat_atl main 233 176 O_____________ hurdat_atl AL011952 38.4000 -72.0000 EX 60 -4 36 32
1952033N19273 1952 11 NA NA NOT_NAMED 1952-02-04 15:00:00 ET 39.9455 -70.7769 main 176 47 P_____________ AL011952 39.9455 -70.7769 EX 57 -4 35 30
1952033N19273 1952 11 NA NA NOT_NAMED 1952-02-04 18:00:00 ET 41.4000 -69.7000 55 hurdat_atl main 41 39 O_____________ hurdat_atl AL011952 41.4000 -69.7000 EX 55 -4 30 27
1952033N19273 1952 11 NA NA NOT_NAMED 1952-02-04 21:00:00 ET 42.6206 -68.9447 main 126 55 P_____________ AL011952 42.6206 -68.9447 EX 52 -4 26 22
1952033N19273 1952 11 NA NA NOT_NAMED 1952-02-05 00:00:00 ET 43.8000 -68.4000 50 hurdat_atl main 45 0 O_____________ hurdat_atl AL011952 43.8000 -68.4000 EX 50 -4 26 17
1952033N19273 1952 11 NA NA NOT_NAMED 1952-02-05 03:00:00 ET 45.1061 -67.9024 main 0 0 P_____________ AL011952 45.1061 -67.9024 EX 47 -4 28 15
1952033N19273 1952 11 NA NA NOT_NAMED 1952-02-05 06:00:00 ET 46.5000 -67.4000 45 hurdat_atl main 0 O_____________ hurdat_atl AL011952 46.5000 -67.4000 EX 45 -4 29 14

IBTrACS Databaseについて

本データベースは、米国NOAAが公開する1842年以降の世界の熱帯低気圧のベストトラックデータアーカイブInternational Best Track Archive for Climate Stewardship (IBTrACS)を、ウェブで閲覧しやすい形式に変換したものです。

最終更新日:2021-10-19